Time;durP1;ratioP1;P1;durP2;ratioP2;P2;SDS_P1;SDS_P2;PMS_P1;PMS_P2;Temp;Humidity;BMP_temperature;BMP_pressure;BME280_temperature;BME280_humidity;BME280_pressure;Samples;Min_cycle;Max_cycle;Signal;HPM_P1;HPM_P2
2020/12/09 00:00:07;;;;;;;41.45;37.35;;;;;;;;;;5076246;28;20194;-91
2020/12/09 00:02:34;;;;;;;39.75;36.25;;;;;;;;;;5076592;28;20207;-90
2020/12/09 00:05:01;;;;;;;41.92;37.47;;;;;;;;;;5076348;28;20200;-91
2020/12/09 00:07:29;;;;;;;41.67;37.55;;;;;;;;;;5076076;28;20188;-90
2020/12/09 00:09:56;;;;;;;43.33;39.10;;;;;;;;;;5076328;28;20183;-91
2020/12/09 00:12:22;;;;;;;38.78;35.15;;;;;;;;;;5076241;28;20714;-90
2020/12/09 00:14:49;;;;;;;39.15;35.53;;;;;;;;;;5076196;28;20215;-90
2020/12/09 00:17:16;;;;;;;40.50;36.55;;;;;;;;;;5076306;28;20188;-90
2020/12/09 00:19:43;;;;;;;42.63;38.33;;;;;;;;;;5075935;28;20195;-90
2020/12/09 00:22:10;;;;;;;41.45;37.47;;;;;;;;;;5076134;28;20196;-90
2020/12/09 00:24:38;;;;;;;39.85;35.83;;;;;;;;;;5075791;28;20708;-90
2020/12/09 00:27:05;;;;;;;41.20;37.28;;;;;;;;;;5075637;28;20195;-90
2020/12/09 00:29:32;;;;;;;41.10;37.00;;;;;;;;;;5076072;28;20187;-90
2020/12/09 00:31:59;;;;;;;39.95;36.20;;;;;;;;;;5075326;28;20323;-90
2020/12/09 00:34:26;;;;;;;44.70;39.15;;;;;;;;;;5075694;28;20222;-90
2020/12/09 00:36:52;;;;;;;42.08;37.83;;;;;;;;;;5075692;28;20189;-90
2020/12/09 00:39:19;;;;;;;40.45;36.70;;;;;;;;;;5075522;28;20367;-90
2020/12/09 00:41:47;;;;;;;41.42;37.40;;;;;;;;;;5057941;28;20195;-90
2020/12/09 00:44:14;;;;;;;40.90;36.55;;;;;;;;;;5075640;28;20251;-90
2020/12/09 00:46:41;;;;;;;41.00;36.90;;;;;;;;;;5075040;28;20592;-90
2020/12/09 00:49:08;;;;;;;42.30;38.10;;;;;;;;;;5075268;28;20707;-90
2020/12/09 00:51:35;;;;;;;43.33;39.13;;;;;;;;;;5075129;28;20559;-90
2020/12/09 00:54:02;;;;;;;42.58;38.47;;;;;;;;;;5057521;28;20281;-90
2020/12/09 00:56:29;;;;;;;44.67;40.17;;;;;;;;;;5075226;28;20191;-90
2020/12/09 00:58:56;;;;;;;41.83;37.72;;;;;;;;;;5075249;28;20199;-90
2020/12/09 01:01:23;;;;;;;41.05;36.85;;;;;;;;;;5075001;28;20195;-90
2020/12/09 01:03:50;;;;;;;42.28;38.33;;;;;;;;;;5075133;28;20222;-91
2020/12/09 01:06:17;;;;;;;45.25;40.13;;;;;;;;;;5057166;28;20290;-90
2020/12/09 01:08:44;;;;;;;46.33;41.00;;;;;;;;;;5074865;28;20192;-90
2020/12/09 01:11:11;;;;;;;45.45;40.42;;;;;;;;;;5074897;28;20191;-90
2020/12/09 01:13:43;;;;;;;42.03;37.90;;;;;;;;;;5074515;28;20211;-90
2020/12/09 01:16:12;;;;;;;42.63;38.33;;;;;;;;;;5074992;28;20249;-90
2020/12/09 01:18:39;;;;;;;43.53;39.40;;;;;;;;;;5074415;28;20207;-90
2020/12/09 01:21:06;;;;;;;42.90;38.63;;;;;;;;;;5074604;28;20187;-90
2020/12/09 01:23:33;;;;;;;43.05;38.80;;;;;;;;;;5074742;28;20191;-89
2020/12/09 01:25:59;;;;;;;44.05;39.55;;;;;;;;;;5074914;28;20270;-91
2020/12/09 01:28:26;;;;;;;43.17;38.78;;;;;;;;;;5074799;28;20191;-90
2020/12/09 01:30:53;;;;;;;44.45;39.90;;;;;;;;;;5074766;28;20192;-90
2020/12/09 01:33:21;;;;;;;45.50;40.75;;;;;;;;;;5074739;28;20227;-90
2020/12/09 01:35:48;;;;;;;43.28;39.10;;;;;;;;;;5057154;28;20650;-90
2020/12/09 01:38:15;;;;;;;44.10;39.30;;;;;;;;;;5074403;28;20191;-90
2020/12/09 01:40:41;;;;;;;42.28;38.08;;;;;;;;;;5074480;28;20192;-90
2020/12/09 01:43:08;;;;;;;40.50;36.55;;;;;;;;;;5074739;28;20195;-89
2020/12/09 01:45:35;;;;;;;41.45;37.53;;;;;;;;;;5056740;28;20261;-90
2020/12/09 01:48:02;;;;;;;43.97;39.17;;;;;;;;;;5074510;28;20520;-90
2020/12/09 01:50:30;;;;;;;41.95;38.05;;;;;;;;;;5074544;28;20205;-90
2020/12/09 01:52:57;;;;;;;43.85;39.13;;;;;;;;;;5057029;28;20188;-90
2020/12/09 01:55:24;;;;;;;42.78;38.58;;;;;;;;;;5074353;28;20580;-91
2020/12/09 01:57:51;;;;;;;42.88;38.85;;;;;;;;;;5074580;28;20206;-90
2020/12/09 02:00:17;;;;;;;43.05;38.78;;;;;;;;;;5074016;28;20203;-90
2020/12/09 02:02:45;;;;;;;45.58;41.00;;;;;;;;;;5074250;28;20192;-90
2020/12/09 02:05:12;;;;;;;43.25;38.67;;;;;;;;;;5074114;28;20195;-90
2020/12/09 02:07:39;;;;;;;44.33;39.95;;;;;;;;;;5074150;28;20187;-90
2020/12/09 02:10:07;;;;;;;43.60;39.20;;;;;;;;;;5074536;28;20184;-90
2020/12/09 02:12:34;;;;;;;42.35;38.20;;;;;;;;;;5074447;28;20609;-90
2020/12/09 02:15:01;;;;;;;44.38;39.88;;;;;;;;;;5074054;28;20231;-90
2020/12/09 02:17:28;;;;;;;42.08;38.15;;;;;;;;;;5056265;28;20744;-90
2020/12/09 02:19:55;;;;;;;43.17;38.63;;;;;;;;;;5074331;28;20612;-90
2020/12/09 02:22:23;;;;;;;43.20;39.00;;;;;;;;;;5074307;28;20184;-89
2020/12/09 02:24:49;;;;;;;41.85;37.63;;;;;;;;;;5074060;28;20207;-90
2020/12/09 02:27:16;;;;;;;43.28;39.00;;;;;;;;;;5056671;28;20203;-89
2020/12/09 02:29:43;;;;;;;42.53;38.47;;;;;;;;;;5074330;28;20188;-90
2020/12/09 02:32:10;;;;;;;42.28;37.88;;;;;;;;;;5074010;28;20242;-90
2020/12/09 02:34:37;;;;;;;41.40;37.20;;;;;;;;;;5074242;28;20623;-90
2020/12/09 02:37:04;;;;;;;42.15;37.80;;;;;;;;;;5075087;28;20602;-90
2020/12/09 02:39:35;;;;;;;42.90;38.63;;;;;;;;;;5077394;28;20196;-90
2020/12/09 02:42:02;;;;;;;43.92;39.45;;;;;;;;;;5069941;28;20199;-89
2020/12/09 02:44:29;;;;;;;42.40;38.15;;;;;;;;;;5074475;28;20243;-90
2020/12/09 02:46:56;;;;;;;43.88;39.33;;;;;;;;;;5073981;28;20188;-90
2020/12/09 02:49:23;;;;;;;42.42;38.25;;;;;;;;;;5073974;28;20202;-90
2020/12/09 02:51:51;;;;;;;41.75;37.75;;;;;;;;;;5074298;28;20273;-90
2020/12/09 02:54:17;;;;;;;40.55;36.75;;;;;;;;;;5073837;28;20224;-90
2020/12/09 02:56:45;;;;;;;41.97;37.97;;;;;;;;;;5073840;28;20204;-90
2020/12/09 02:59:12;;;;;;;41.30;37.13;;;;;;;;;;5074098;28;20187;-90
2020/12/09 03:01:39;;;;;;;40.92;37.00;;;;;;;;;;5074042;28;20265;-90
2020/12/09 03:04:06;;;;;;;40.95;36.85;;;;;;;;;;5074071;28;20200;-89
2020/12/09 03:06:33;;;;;;;41.40;37.05;;;;;;;;;;5073921;28;20253;-90
2020/12/09 03:09:00;;;;;;;39.85;35.75;;;;;;;;;;5073860;28;20196;-90
2020/12/09 03:11:27;;;;;;;44.28;39.72;;;;;;;;;;5077208;28;20191;-90
2020/12/09 03:13:55;;;;;;;41.20;37.00;;;;;;;;;;5077736;28;20223;-89
2020/12/09 03:16:22;;;;;;;43.58;39.38;;;;;;;;;;5077266;28;20583;-90
2020/12/09 03:18:48;;;;;;;40.78;36.90;;;;;;;;;;5077884;28;20593;-90
2020/12/09 03:21:15;;;;;;;41.97;37.72;;;;;;;;;;5077393;28;20644;-89
2020/12/09 03:23:42;;;;;;;41.05;36.85;;;;;;;;;;5077442;28;20622;-89
2020/12/09 03:26:09;;;;;;;42.45;38.10;;;;;;;;;;5076873;28;20241;-89
2020/12/09 03:28:37;;;;;;;41.42;37.47;;;;;;;;;;5077382;28;20602;-89
2020/12/09 03:31:05;;;;;;;44.00;39.60;;;;;;;;;;5077138;28;20188;-89
2020/12/09 03:33:32;;;;;;;41.45;37.30;;;;;;;;;;5076632;28;20235;-90
2020/12/09 03:35:59;;;;;;;41.58;37.58;;;;;;;;;;5076740;28;20192;-89
2020/12/09 03:38:26;;;;;;;41.40;37.38;;;;;;;;;;5076505;28;20192;-89
2020/12/09 03:40:53;;;;;;;41.47;37.55;;;;;;;;;;5076652;28;20629;-90
2020/12/09 03:43:19;;;;;;;43.45;39.25;;;;;;;;;;5076144;28;20232;-89
2020/12/09 03:45:46;;;;;;;42.60;38.40;;;;;;;;;;5076160;28;20196;-90
2020/12/09 03:48:14;;;;;;;45.17;40.72;;;;;;;;;;5076375;28;20252;-89
2020/12/09 03:50:41;;;;;;;43.20;39.10;;;;;;;;;;5076164;28;20287;-89
2020/12/09 03:53:08;;;;;;;41.15;37.47;;;;;;;;;;5076595;28;20200;-90
2020/12/09 03:55:35;;;;;;;43.15;38.92;;;;;;;;;;5058265;28;20227;-89
2020/12/09 03:58:02;;;;;;;42.40;38.15;;;;;;;;;;5058608;28;20192;-90
2020/12/09 04:00:29;;;;;;;41.70;37.80;;;;;;;;;;5076261;28;20249;-89
2020/12/09 04:02:56;;;;;;;42.45;38.35;;;;;;;;;;5058742;28;20654;-89
2020/12/09 04:05:25;;;;;;;40.72;36.70;;;;;;;;;;5076516;28;20280;-89
2020/12/09 04:07:52;;;;;;;45.22;40.60;;;;;;;;;;5076376;28;20189;-89
2020/12/09 04:10:19;;;;;;;43.90;39.63;;;;;;;;;;5075916;28;20580;-90
2020/12/09 04:12:46;;;;;;;43.28;39.17;;;;;;;;;;5058484;28;20195;-89
2020/12/09 04:15:13;;;;;;;40.95;36.85;;;;;;;;;;5075987;28;20212;-89
2020/12/09 04:17:39;;;;;;;42.75;38.42;;;;;;;;;;5076003;28;20196;-89
2020/12/09 04:20:07;;;;;;;42.35;38.45;;;;;;;;;;5076221;28;20533;-89
2020/12/09 04:22:35;;;;;;;40.83;37.00;;;;;;;;;;5075282;28;20187;-90
2020/12/09 04:25:02;;;;;;;40.60;36.65;;;;;;;;;;5075573;28;20695;-90
2020/12/09 04:27:29;;;;;;;41.47;37.38;;;;;;;;;;5075682;28;20196;-90
2020/12/09 04:29:56;;;;;;;40.88;36.80;;;;;;;;;;5076061;28;20203;-89
2020/12/09 04:32:23;;;;;;;41.80;37.85;;;;;;;;;;5075683;28;20569;-91
2020/12/09 04:34:50;;;;;;;41.53;37.53;;;;;;;;;;5075613;28;20218;-90
2020/12/09 04:37:18;;;;;;;41.40;37.50;;;;;;;;;;5057651;28;20722;-90
2020/12/09 04:39:46;;;;;;;41.08;37.35;;;;;;;;;;5075784;28;20198;-90
2020/12/09 04:42:17;;;;;;;43.28;38.80;;;;;;;;;;5075493;28;20211;-90
2020/12/09 04:44:45;;;;;;;41.60;37.28;;;;;;;;;;5075185;28;20696;-90
2020/12/09 04:47:17;;;;;;;42.60;38.40;;;;;;;;;;5075541;28;20194;-89
2020/12/09 04:49:46;;;;;;;43.90;39.40;;;;;;;;;;5075178;28;20192;-90
2020/12/09 04:52:39;;;;;;;43.70;39.35;;;;;;;;;;5075199;28;20195;-89
2020/12/09 04:55:09;;;;;;;42.78;38.45;;;;;;;;;;5075325;28;20220;-90
2020/12/09 04:58:02;;;;;;;40.75;36.95;;;;;;;;;;5075975;28;20197;-90
2020/12/09 05:00:30;;;;;;;42.90;38.60;;;;;;;;;;5075423;28;20187;-89
2020/12/09 05:03:04;;;;;;;43.15;38.85;;;;;;;;;;5075145;28;20188;-90
2020/12/09 05:05:31;;;;;;;42.97;38.78;;;;;;;;;;5057434;28;20199;-89
2020/12/09 05:07:59;;;;;;;42.45;38.33;;;;;;;;;;5074979;28;20196;-89
2020/12/09 05:10:27;;;;;;;39.10;35.58;;;;;;;;;;5075275;28;20218;-89
2020/12/09 05:12:56;;;;;;;41.45;37.33;;;;;;;;;;5057357;28;20199;-90
2020/12/09 05:15:24;;;;;;;42.67;38.38;;;;;;;;;;5075147;28;20231;-90
2020/12/09 05:18:02;;;;;;;42.55;38.25;;;;;;;;;;5074986;28;20206;-90
2020/12/09 05:20:31;;;;;;;42.50;38.25;;;;;;;;;;5074920;28;20403;-90
2020/12/09 05:22:58;;;;;;;39.70;35.95;;;;;;;;;;5076008;28;20183;-90
2020/12/09 05:25:27;;;;;;;42.50;38.30;;;;;;;;;;5074809;28;20279;-90
2020/12/09 05:27:54;;;;;;;43.60;39.00;;;;;;;;;;5074630;28;20646;-90
2020/12/09 05:30:40;;;;;;;43.42;39.22;;;;;;;;;;5074440;28;20191;-89
2020/12/09 05:33:07;;;;;;;44.53;39.78;;;;;;;;;;5067300;28;20230;-90
2020/12/09 05:35:33;;;;;;;43.00;38.45;;;;;;;;;;5074366;28;20215;-90
2020/12/09 05:38:16;;;;;;;43.75;39.40;;;;;;;;;;5074700;28;20207;-89
2020/12/09 05:40:44;;;;;;;43.30;39.05;;;;;;;;;;5074530;28;20195;-88
2020/12/09 05:43:11;;;;;;;44.38;40.28;;;;;;;;;;5074673;28;20223;-88
2020/12/09 05:45:38;;;;;;;44.92;40.40;;;;;;;;;;5074744;28;20218;-89
2020/12/09 05:48:12;;;;;;;42.83;38.53;;;;;;;;;;5074488;28;20188;-88
2020/12/09 05:50:46;;;;;;;46.72;41.92;;;;;;;;;;5074703;28;20311;-86
2020/12/09 05:53:20;;;;;;;44.78;40.35;;;;;;;;;;5074834;28;20188;-88
2020/12/09 05:55:48;;;;;;;43.58;39.15;;;;;;;;;;5073851;28;20236;-86
2020/12/09 05:58:22;;;;;;;45.97;41.47;;;;;;;;;;5074500;28;20195;-88
2020/12/09 06:01:05;;;;;;;43.50;39.20;;;;;;;;;;5074194;28;20189;-88
2020/12/09 06:03:32;;;;;;;44.35;39.92;;;;;;;;;;5056520;28;20230;-88
2020/12/09 06:06:12;;;;;;;44.25;39.85;;;;;;;;;;5074183;28;20641;-88
2020/12/09 06:08:39;;;;;;;44.55;40.10;;;;;;;;;;5074358;28;20188;-88
2020/12/09 06:11:07;;;;;;;42.72;38.60;;;;;;;;;;5074614;28;20192;-88
2020/12/09 06:13:34;;;;;;;44.10;39.95;;;;;;;;;;5073955;28;20207;-88
2020/12/09 06:16:02;;;;;;;46.50;41.53;;;;;;;;;;5073888;28;20693;-88
2020/12/09 06:18:30;;;;;;;43.33;39.13;;;;;;;;;;5056419;28;20233;-90
2020/12/09 06:20:57;;;;;;;44.70;40.05;;;;;;;;;;5073843;28;20669;-89
2020/12/09 06:23:27;;;;;;;44.20;39.90;;;;;;;;;;5074237;28;20187;-88
2020/12/09 06:25:54;;;;;;;43.63;39.47;;;;;;;;;;5074538;28;20196;-87
2020/12/09 06:28:23;;;;;;;42.97;39.03;;;;;;;;;;5073703;28;20204;-86
2020/12/09 06:30:50;;;;;;;43.00;39.10;;;;;;;;;;5056185;28;20193;-89
2020/12/09 06:33:36;;;;;;;41.70;37.63;;;;;;;;;;5068897;28;20743;-89
2020/12/09 06:36:13;;;;;;;42.20;38.20;;;;;;;;;;5074126;28;20310;-89
2020/12/09 06:38:40;;;;;;;40.05;36.35;;;;;;;;;;5074253;28;20191;-89
2020/12/09 06:41:11;;;;;;;43.42;39.22;;;;;;;;;;5073972;28;20188;-89
2020/12/09 06:43:39;;;;;;;41.30;37.42;;;;;;;;;;5073955;28;20626;-88
2020/12/09 06:46:06;;;;;;;43.90;39.70;;;;;;;;;;5058603;28;20715;-88
2020/12/09 06:48:39;;;;;;;43.55;38.83;;;;;;;;;;5077852;28;20197;-88
2020/12/09 06:51:25;;;;;;;44.95;40.33;;;;;;;;;;5077701;28;20249;-89
2020/12/09 06:54:06;;;;;;;47.00;42.00;;;;;;;;;;5077235;28;20650;-89
2020/12/09 06:56:33;;;;;;;46.25;41.35;;;;;;;;;;5076934;28;20204;-88
2020/12/09 06:59:23;;;;;;;43.15;38.97;;;;;;;;;;5060044;28;20604;-87
2020/12/09 07:02:00;;;;;;;45.00;40.40;;;;;;;;;;5077871;28;20199;-88
2020/12/09 07:04:52;;;;;;;43.40;39.08;;;;;;;;;;5077629;28;20238;-87
2020/12/09 07:07:25;;;;;;;44.58;40.15;;;;;;;;;;5077110;28;20207;-87
2020/12/09 07:09:52;;;;;;;43.08;38.88;;;;;;;;;;5077303;28;20192;-87
2020/12/09 07:12:19;;;;;;;49.25;43.85;;;;;;;;;;5077399;28;20203;-88
2020/12/09 07:14:50;;;;;;;45.03;40.65;;;;;;;;;;5059650;28;20224;-87
2020/12/09 07:17:17;;;;;;;44.95;40.65;;;;;;;;;;5077110;28;20188;-87
2020/12/09 07:19:44;;;;;;;43.35;39.08;;;;;;;;;;5077857;28;20577;-88
2020/12/09 07:22:11;;;;;;;45.03;40.65;;;;;;;;;;5077003;28;20203;-88
2020/12/09 07:24:38;;;;;;;45.67;41.35;;;;;;;;;;5077775;28;20222;-88
2020/12/09 07:27:05;;;;;;;47.63;42.95;;;;;;;;;;5077053;28;20275;-87
2020/12/09 07:29:32;;;;;;;46.35;41.50;;;;;;;;;;5076791;28;20207;-87
2020/12/09 07:32:02;;;;;;;44.58;40.25;;;;;;;;;;5076793;28;20228;-87
2020/12/09 07:34:28;;;;;;;45.35;40.85;;;;;;;;;;5076980;28;20223;-86
2020/12/09 07:36:55;;;;;;;46.10;41.78;;;;;;;;;;5076624;28;20235;-85
2020/12/09 07:39:29;;;;;;;45.90;41.63;;;;;;;;;;5076921;28;20192;-84
2020/12/09 07:41:58;;;;;;;46.55;41.92;;;;;;;;;;5059021;28;20202;-85
2020/12/09 07:44:25;;;;;;;46.03;41.47;;;;;;;;;;5076673;28;20251;-86
2020/12/09 07:46:53;;;;;;;48.47;43.47;;;;;;;;;;5076790;28;20220;-86
2020/12/09 07:49:21;;;;;;;50.10;45.00;;;;;;;;;;5076370;28;20635;-84
2020/12/09 07:51:51;;;;;;;47.75;43.05;;;;;;;;;;5076496;28;20280;-84
2020/12/09 07:54:18;;;;;;;46.28;41.53;;;;;;;;;;5058486;28;20203;-84
2020/12/09 07:56:45;;;;;;;47.45;42.65;;;;;;;;;;5075250;28;20191;-84
2020/12/09 07:59:12;;;;;;;48.25;43.45;;;;;;;;;;5076176;28;20194;-83
2020/12/09 08:01:39;;;;;;;47.60;42.90;;;;;;;;;;5076407;28;20188;-81
2020/12/09 08:04:06;;;;;;;55.85;47.28;;;;;;;;;;5076017;28;20192;-83
2020/12/09 08:06:34;;;;;;;48.92;43.90;;;;;;;;;;5058604;28;20650;-81
2020/12/09 08:09:12;;;;;;;47.85;42.60;;;;;;;;;;5075668;28;20191;-82
2020/12/09 08:11:40;;;;;;;51.25;43.75;;;;;;;;;;5076350;28;20192;-82
2020/12/09 08:14:07;;;;;;;47.70;42.63;;;;;;;;;;5075952;28;20188;-82
2020/12/09 08:16:34;;;;;;;54.78;47.10;;;;;;;;;;5075439;28;20633;-84
2020/12/09 08:19:06;;;;;;;48.95;43.80;;;;;;;;;;5075769;28;20589;-85
2020/12/09 08:21:34;;;;;;;53.85;43.50;;;;;;;;;;5075685;28;20192;-83
2020/12/09 08:24:11;;;;;;;52.28;45.50;;;;;;;;;;5075124;28;20196;-80
2020/12/09 08:26:38;;;;;;;52.45;44.00;;;;;;;;;;5075319;28;20622;-87
2020/12/09 08:29:05;;;;;;;53.88;42.85;;;;;;;;;;5075434;28;20192;-80
2020/12/09 08:31:34;;;;;;;49.70;43.88;;;;;;;;;;5074976;28;20193;-81
2020/12/09 08:34:01;;;;;;;49.95;44.83;;;;;;;;;;5075159;28;20249;-83
2020/12/09 08:36:30;;;;;;;55.67;46.97;;;;;;;;;;5057623;28;20235;-80
2020/12/09 08:38:59;;;;;;;54.22;44.63;;;;;;;;;;5075019;28;20196;-79
2020/12/09 08:41:27;;;;;;;53.80;45.83;;;;;;;;;;5058182;28;20200;-77
2020/12/09 08:43:56;;;;;;;51.85;46.30;;;;;;;;;;5075159;28;20626;-82
2020/12/09 08:46:24;;;;;;;53.25;46.75;;;;;;;;;;5075139;28;20292;-81
2020/12/09 08:48:50;;;;;;;51.70;46.00;;;;;;;;;;5075219;28;20279;-83
2020/12/09 08:51:23;;;;;;;55.78;46.67;;;;;;;;;;5055326;28;20192;-79
2020/12/09 08:53:50;;;;;;;56.17;46.13;;;;;;;;;;5074147;28;20185;-82
2020/12/09 08:56:17;;;;;;;52.65;46.88;;;;;;;;;;5074727;28;20226;-82
2020/12/09 08:58:44;;;;;;;52.40;43.65;;;;;;;;;;5074097;28;20238;-83
2020/12/09 09:01:11;;;;;;;57.15;47.45;;;;;;;;;;5074652;28;20194;-83
2020/12/09 09:03:40;;;;;;;55.25;47.42;;;;;;;;;;5074875;28;20211;-82
2020/12/09 09:06:07;;;;;;;51.58;44.53;;;;;;;;;;5074845;28;20209;-82
2020/12/09 09:08:34;;;;;;;55.22;45.22;;;;;;;;;;5074061;28;20596;-82
2020/12/09 09:11:01;;;;;;;58.35;44.97;;;;;;;;;;5074249;28;20196;-84
2020/12/09 09:13:29;;;;;;;53.83;43.25;;;;;;;;;;5074608;28;20204;-83
2020/12/09 09:15:57;;;;;;;55.35;46.70;;;;;;;;;;5074065;28;20289;-82
2020/12/09 09:18:24;;;;;;;49.65;42.45;;;;;;;;;;5074669;28;20302;-83
2020/12/09 09:20:53;;;;;;;55.78;43.78;;;;;;;;;;5074455;28;20195;-83
2020/12/09 09:23:20;;;;;;;57.42;44.40;;;;;;;;;;5074447;28;20184;-83
2020/12/09 09:25:48;;;;;;;59.60;46.38;;;;;;;;;;5074620;28;20192;-88
2020/12/09 09:28:15;;;;;;;57.63;45.67;;;;;;;;;;5074662;28;20183;-88
2020/12/09 09:30:43;;;;;;;59.15;45.58;;;;;;;;;;5074745;28;20196;-88
2020/12/09 09:33:10;;;;;;;59.47;42.90;;;;;;;;;;5074405;28;20259;-87
2020/12/09 09:35:36;;;;;;;56.60;45.92;;;;;;;;;;5057118;28;20209;-86
2020/12/09 09:38:03;;;;;;;56.08;44.63;;;;;;;;;;5075276;28;20205;-83
2020/12/09 09:40:30;;;;;;;56.22;47.03;;;;;;;;;;5074648;28;20200;-87
2020/12/09 09:42:57;;;;;;;52.13;45.00;;;;;;;;;;5074147;28;20270;-81
2020/12/09 09:45:25;;;;;;;58.65;46.92;;;;;;;;;;5073912;28;20196;-81
2020/12/09 09:47:53;;;;;;;59.03;46.15;;;;;;;;;;5074697;28;20284;-85
2020/12/09 09:50:20;;;;;;;51.72;44.22;;;;;;;;;;5056522;28;20269;-85
2020/12/09 09:52:47;;;;;;;61.45;48.72;;;;;;;;;;5074116;28;20219;-91
2020/12/09 09:55:14;;;;;;;52.35;46.60;;;;;;;;;;5074263;28;20232;-84
2020/12/09 09:57:41;;;;;;;59.28;49.55;;;;;;;;;;5056306;28;20583;-86
2020/12/09 10:00:08;;;;;;;60.00;46.60;;;;;;;;;;5073655;28;20195;-85
2020/12/09 10:02:35;;;;;;;55.63;45.45;;;;;;;;;;5074112;28;20286;-85
2020/12/09 10:05:03;;;;;;;57.13;47.42;;;;;;;;;;5074184;28;20199;-85
2020/12/09 10:07:30;;;;;;;64.78;47.65;;;;;;;;;;5073998;28;20188;-80
2020/12/09 10:10:01;;;;;;;56.45;44.25;;;;;;;;;;5074235;28;20184;-86
2020/12/09 10:12:30;;;;;;;61.55;47.67;;;;;;;;;;5073832;28;20187;-80
2020/12/09 10:14:57;;;;;;;57.35;46.50;;;;;;;;;;5073852;28;20284;-79
2020/12/09 10:17:24;;;;;;;54.17;44.45;;;;;;;;;;5074089;28;20252;-83
2020/12/09 10:19:51;;;;;;;56.20;44.50;;;;;;;;;;5073378;28;20192;-82
2020/12/09 10:22:19;;;;;;;54.25;44.47;;;;;;;;;;5077962;28;20194;-83
2020/12/09 10:24:46;;;;;;;52.78;45.03;;;;;;;;;;5077337;28;20197;-78
2020/12/09 10:27:13;;;;;;;59.85;45.20;;;;;;;;;;5077404;28;20638;-81
2020/12/09 10:29:42;;;;;;;59.40;47.05;;;;;;;;;;5077642;28;20243;-80
2020/12/09 10:32:09;;;;;;;56.92;45.65;;;;;;;;;;5059790;28;20320;-78
2020/12/09 10:34:38;;;;;;;54.35;44.08;;;;;;;;;;5077578;28;20188;-82
2020/12/09 10:37:05;;;;;;;56.42;43.08;;;;;;;;;;5077673;28;20673;-88
2020/12/09 10:39:33;;;;;;;58.53;45.15;;;;;;;;;;5059828;28;20229;-84
2020/12/09 10:42:00;;;;;;;55.22;47.20;;;;;;;;;;5077823;28;20275;-91
2020/12/09 10:44:27;;;;;;;57.85;43.47;;;;;;;;;;5077691;28;20233;-85
2020/12/09 10:46:54;;;;;;;56.85;46.40;;;;;;;;;;5077552;28;20199;-83
2020/12/09 10:49:21;;;;;;;63.97;46.00;;;;;;;;;;5059853;28;20205;-90
2020/12/09 10:51:49;;;;;;;58.42;47.05;;;;;;;;;;5077296;28;20195;-79
2020/12/09 10:54:16;;;;;;;60.83;48.50;;;;;;;;;;5077353;28;20638;-87
2020/12/09 10:56:44;;;;;;;60.67;46.67;;;;;;;;;;5077438;28;20217;-85
2020/12/09 10:59:11;;;;;;;60.80;47.40;;;;;;;;;;5077788;28;20193;-86
2020/12/09 11:01:38;;;;;;;61.47;48.55;;;;;;;;;;5077586;28;20586;-85
2020/12/09 11:04:05;;;;;;;58.55;46.80;;;;;;;;;;5059893;28;20196;-86
2020/12/09 11:06:33;;;;;;;65.72;49.38;;;;;;;;;;5077375;28;20547;-81
2020/12/09 11:09:00;;;;;;;62.72;47.60;;;;;;;;;;5069111;28;20638;-85
2020/12/09 11:11:29;;;;;;;56.38;44.88;;;;;;;;;;5077191;28;20194;-85
2020/12/09 11:13:56;;;;;;;60.05;48.03;;;;;;;;;;5077059;28;20200;-85
2020/12/09 11:16:23;;;;;;;56.70;47.28;;;;;;;;;;5077264;28;20597;-86
2020/12/09 11:18:51;;;;;;;58.03;45.28;;;;;;;;;;5077059;28;20591;-85
2020/12/09 11:21:18;;;;;;;59.15;46.58;;;;;;;;;;5076816;28;20651;-85
2020/12/09 11:23:46;;;;;;;63.08;48.20;;;;;;;;;;5076984;28;20191;-86
2020/12/09 11:26:12;;;;;;;58.08;45.05;;;;;;;;;;5076602;28;20195;-85
2020/12/09 11:28:39;;;;;;;53.28;45.67;;;;;;;;;;5076701;28;20203;-85
2020/12/09 11:31:07;;;;;;;51.65;46.03;;;;;;;;;;5076310;28;20197;-85
2020/12/09 11:33:34;;;;;;;56.08;44.08;;;;;;;;;;5075850;28;20236;-85
2020/12/09 11:36:01;;;;;;;56.10;47.00;;;;;;;;;;5075863;28;20262;-85
2020/12/09 11:38:28;;;;;;;64.25;48.97;;;;;;;;;;5057925;28;20188;-84
2020/12/09 11:40:55;;;;;;;54.25;48.40;;;;;;;;;;5076041;28;20189;-86
2020/12/09 11:43:24;;;;;;;59.00;46.90;;;;;;;;;;5076862;28;20227;-87
2020/12/09 11:45:51;;;;;;;63.75;47.72;;;;;;;;;;5076364;28;20204;-85
2020/12/09 11:48:20;;;;;;;56.53;46.38;;;;;;;;;;5077118;28;20225;-85
2020/12/09 11:50:48;;;;;;;56.67;46.75;;;;;;;;;;5077697;28;20193;-85
2020/12/09 11:53:15;;;;;;;56.63;45.35;;;;;;;;;;5077349;28;20612;-85
2020/12/09 11:55:42;;;;;;;55.38;45.15;;;;;;;;;;5076499;28;20220;-85
2020/12/09 11:58:09;;;;;;;65.28;48.13;;;;;;;;;;5075945;28;20196;-85
2020/12/09 12:00:36;;;;;;;60.15;47.22;;;;;;;;;;5058435;28;20204;-85
2020/12/09 12:03:03;;;;;;;57.92;46.05;;;;;;;;;;5076348;28;20549;-86
2020/12/09 12:05:33;;;;;;;57.83;45.53;;;;;;;;;;5075607;28;20211;-76
2020/12/09 12:08:04;;;;;;;59.70;45.90;;;;;;;;;;5075084;28;20536;-77
2020/12/09 12:10:31;;;;;;;59.80;47.83;;;;;;;;;;5075163;28;20188;-78
2020/12/09 12:12:58;;;;;;;56.08;45.90;;;;;;;;;;5075044;28;20187;-81
2020/12/09 12:15:25;;;;;;;63.35;47.42;;;;;;;;;;5074900;28;20229;-80
2020/12/09 12:17:51;;;;;;;59.97;48.38;;;;;;;;;;5075578;28;20192;-84
2020/12/09 12:20:18;;;;;;;59.95;48.22;;;;;;;;;;5075357;28;20220;-81
2020/12/09 12:22:46;;;;;;;67.90;49.47;;;;;;;;;;5075205;28;20583;-80
2020/12/09 12:25:13;;;;;;;58.92;45.58;;;;;;;;;;5074587;28;20199;-81
2020/12/09 12:27:40;;;;;;;56.58;46.60;;;;;;;;;;5056682;28;20199;-82
2020/12/09 12:30:07;;;;;;;58.60;45.47;;;;;;;;;;5057253;28;20203;-80
2020/12/09 12:32:34;;;;;;;54.38;44.08;;;;;;;;;;5074853;28;20708;-82
2020/12/09 12:35:01;;;;;;;61.30;48.63;;;;;;;;;;5074728;28;20215;-80
2020/12/09 12:37:28;;;;;;;58.50;46.22;;;;;;;;;;5074723;28;20197;-82
2020/12/09 12:39:55;;;;;;;57.45;46.20;;;;;;;;;;5072739;28;20294;-80
2020/12/09 12:42:22;;;;;;;57.30;46.20;;;;;;;;;;5074069;28;20230;-80
2020/12/09 12:44:49;;;;;;;60.15;45.38;;;;;;;;;;5074565;28;20199;-84
2020/12/09 12:47:16;;;;;;;62.42;47.63;;;;;;;;;;5057403;28;20251;-82
2020/12/09 12:49:43;;;;;;;64.65;48.10;;;;;;;;;;5074181;28;20189;-79
2020/12/09 12:52:10;;;;;;;69.22;49.83;;;;;;;;;;5075199;28;20195;-81
2020/12/09 12:54:37;;;;;;;63.83;49.17;;;;;;;;;;5073969;28;20524;-81
2020/12/09 12:57:05;;;;;;;63.15;49.05;;;;;;;;;;5074313;28;20243;-83
2020/12/09 12:59:32;;;;;;;73.70;50.00;;;;;;;;;;5075220;28;20373;-82
2020/12/09 13:02:00;;;;;;;58.42;46.80;;;;;;;;;;5056466;28;20264;-79
2020/12/09 13:04:27;;;;;;;90.88;51.28;;;;;;;;;;5056131;28;20675;-93
2020/12/09 13:06:54;;;;;;;70.35;51.42;;;;;;;;;;5075900;28;20196;-96
2020/12/09 13:09:21;;;;;;;73.90;50.75;;;;;;;;;;5074717;28;20189;-83
2020/12/09 13:11:48;;;;;;;67.97;50.20;;;;;;;;;;5055853;28;20651;-79
2020/12/09 13:14:16;;;;;;;82.65;51.38;;;;;;;;;;5074314;28;20184;-80
2020/12/09 13:16:46;;;;;;;82.38;53.97;;;;;;;;;;5056202;28;20318;-84
2020/12/09 13:19:13;;;;;;;79.30;51.13;;;;;;;;;;5075603;28;20249;-94
2020/12/09 13:21:40;;;;;;;82.15;53.70;;;;;;;;;;5076056;28;20276;-93
2020/12/09 13:24:06;;;;;;;79.85;51.42;;;;;;;;;;5075004;28;20195;-92
2020/12/09 13:26:33;;;;;;;69.18;50.78;;;;;;;;;;5075910;28;20196;-96
2020/12/09 13:29:00;;;;;;;79.70;52.28;;;;;;;;;;5083204;28;20193;-96
2020/12/09 13:31:28;;;;;;;82.10;54.60;;;;;;;;;;5079663;28;20241;-87
2020/12/09 13:33:55;;;;;;;63.05;49.00;;;;;;;;;;5075671;28;20192;-96
2020/12/09 13:36:23;;;;;;;68.03;49.20;;;;;;;;;;5075782;28;20227;-93
2020/12/09 13:38:50;;;;;;;76.63;50.58;;;;;;;;;;5074943;28;20276;-83
2020/12/09 13:41:17;;;;;;;71.43;52.92;;;;;;;;;;5073773;28;20204;-94
2020/12/09 13:43:44;;;;;;;65.50;50.13;;;;;;;;;;5074743;28;20639;-93
2020/12/09 13:46:10;;;;;;;63.00;48.58;;;;;;;;;;5074334;28;20184;-89
2020/12/09 13:48:38;;;;;;;62.35;47.15;;;;;;;;;;5074581;28;20523;-89
2020/12/09 13:51:05;;;;;;;61.58;48.85;;;;;;;;;;5074359;28;20189;-81
2020/12/09 13:53:32;;;;;;;72.68;51.63;;;;;;;;;;5074225;28;20188;-86
2020/12/09 13:55:59;;;;;;;65.30;49.05;;;;;;;;;;5074367;28;20315;-86
2020/12/09 13:58:26;;;;;;;62.78;50.50;;;;;;;;;;5074756;28;20219;-87
2020/12/09 14:00:53;;;;;;;63.10;49.30;;;;;;;;;;5074456;28;20646;-86
2020/12/09 14:03:20;;;;;;;75.43;51.88;;;;;;;;;;5074318;28;20196;-86
2020/12/09 14:05:47;;;;;;;87.50;52.38;;;;;;;;;;5074273;28;20192;-86
2020/12/09 14:08:15;;;;;;;67.70;50.45;;;;;;;;;;5074519;28;20193;-86
2020/12/09 14:10:42;;;;;;;74.18;51.25;;;;;;;;;;5074275;28;20215;-86
2020/12/09 14:13:09;;;;;;;79.57;53.20;;;;;;;;;;5074043;28;20188;-86
2020/12/09 14:15:36;;;;;;;77.75;54.28;;;;;;;;;;5073958;28;20226;-89
2020/12/09 14:18:03;;;;;;;85.95;53.85;;;;;;;;;;5074390;28;20196;-85
2020/12/09 14:20:30;;;;;;;95.25;57.47;;;;;;;;;;5074266;28;20200;-84